Welcome, MN

2:56 PM CDT on September 23, 2014 (GMT -0500)
Jackson Municipal | Change Station
CLOSE
Current Station
Airport
Location: Jackson,
Elevation: 1447 ft
Nearby Weather Stations

Elev 1447 ft 43.65 °N, 94.99 °W | Updated 22 minutes ago

Overcast
Overcast
68 °F
Feels Like 68 °F
N
16
Wind Variable Wind from SSE
Gusts 20 mph

Today
High -- | Low -- °F
--% Chance of Precip.
Yesterday
High -- | Low -- °F
Precip. -- in
7:06 AM 7:13 PM
Waning Crescent, 0% visible
Pressure 30.16 in
Visibility 10.0 miles
Clouds Scattered Clouds 2500 ft
Mostly Cloudy 6500 ft
Overcast 11000 ft
Dew Point 50 °F
Humidity 52%
Rainfall 0.00 in
Snow Depth Not available.
UV 2 out of 12
Pollen 1.50 out of 12
Air Quality Not available.
Flu Activity Not available.
METAR KMJQ 231934Z AUTO 16014G17KT 10SM SCT025 BKN065 OVC110 20/10 A3016 RMK AO2

More Conditions Fewer Conditions

Pressure 30.16 in
Visibility 10.0 miles
Clouds Scattered Clouds 2500 ft
Mostly Cloudy 6500 ft
Overcast 11000 ft
Dew Point 50 °F
Humidity 52%
Rainfall 0.00 in
Snow Depth Not available.
UV 2 out of 12
Pollen 1.50 out of 12
Air Quality Not available.
Flu Activity Not available.
METAR KMJQ 231934Z AUTO 16014G17KT 10SM SCT025 BKN065 OVC110 20/10 A3016 RMK AO2

More Conditions Fewer Conditions

10-Day Weather Forecast

Almanac

Astronomy

Sep. 23, 2014 Rise Set
Actual Time 7:06 AM CDT 7:13 PM CDT
Civil Twilight 6:38 AM CDT 7:42 PM CDT
Nautical Twilight 6:04 AM CDT 8:16 PM CDT
Astronomical Twilight 5:30 AM CDT 8:50 PM CDT
Moon 6:31 AM CDT 6:52 PM CDT
Length of Visible Light 13h 04m
Length of Day
12h 07m
Tomorrow will be 2m 59s shorter.
Waning Crescent, 0% of the Moon is Illuminated
Today
Waning Crescent
Sep 24
New
Oct 1
First Quarter
Oct 8
Full
Oct 15
Last Quarter

Today's Extremes

State Highs State Lows

Community

WunderPhotos

Upload Photos

1,755,788 photos uploaded!

WunderBlogs® & News

Nearby

Snow Depth

Station Depth Elevation
No new snow has been reported.

Earthquake Activity

City Distance Mag. Time & Date
No recent earthquake activity has been reported nearby.
Minimum magnitude displayed is 2.5.

Coastal Water Temperatures

Place Temperature
No Stations Reporting

Nearby Weather Stations